Time;durP1;ratioP1;P1;durP2;ratioP2;P2;SDS_P1;SDS_P2;PMS_P1;PMS_P2;Temp;Humidity;BMP_temperature;BMP_pressure;BME280_temperature;BME280_humidity;BME280_pressure;Samples;Min_cycle;Max_cycle;Signal;HPM_P1;HPM_P2
2022/05/24 00:00:26;;;;;;;21.23;17.63;;;;;;;13.73;100.00;99742.56;2063981;28;20050;-70
2022/05/24 00:01:26;;;;;;;19.08;16.80;;;;;;;13.74;100.00;99741.59;2063655;28;20031;-68
2022/05/24 00:02:27;;;;;;;18.35;16.45;;;;;;;13.73;100.00;99737.19;2055332;28;20047;-68
2022/05/24 00:03:30;;;;;;;21.15;16.92;;;;;;;13.76;100.00;99741.53;2055598;28;20524;-69
2022/05/24 00:04:32;;;;;;;18.15;16.20;;;;;;;13.74;100.00;99736.22;2047716;28;20083;-69
2022/05/24 00:05:36;;;;;;;18.73;16.67;;;;;;;13.75;100.00;99745.19;2048413;28;20044;-71
2022/05/24 00:06:37;;;;;;;18.73;16.67;;;;;;;13.75;100.00;99745.19;2047580;28;20081;-69
2022/05/24 00:07:38;;;;;;;18.80;16.65;;;;;;;13.73;100.00;99739.03;2047395;28;20048;-70
2022/05/24 00:08:39;;;;;;;17.92;15.80;;;;;;;13.74;100.00;99744.28;2064239;28;20035;-70
2022/05/24 00:10:04;;;;;;;18.77;16.38;;;;;;;13.75;100.00;99746.03;2063700;28;20051;-66
2022/05/24 00:11:15;;;;;;;18.95;16.80;;;;;;;13.71;100.00;99748.97;2051912;28;20047;-67
2022/05/24 00:12:16;;;;;;;18.77;16.77;;;;;;;13.71;100.00;99746.28;2036079;28;20039;-67
2022/05/24 00:13:17;;;;;;;19.15;16.40;;;;;;;13.70;100.00;99756.19;2039173;28;20048;-68
2022/05/24 00:15:19;;;;;;;18.92;16.90;;;;;;;13.68;100.00;99741.97;2055811;28;20052;-69
2022/05/24 00:15:40;;;;;;;21.38;17.10;;;;;;;13.68;100.00;99760.78;2058472;28;20094;-69
2022/05/24 00:16:40;;;;;;;19.50;17.17;;;;;;;13.69;100.00;99751.78;2047947;28;20038;-68
2022/05/24 00:17:43;;;;;;;19.58;17.23;;;;;;;13.68;100.00;99749.16;2050171;28;20044;-69
2022/05/24 00:18:44;;;;;;;20.55;16.95;;;;;;;13.68;100.00;99749.16;2055902;28;20047;-70
2022/05/24 00:19:49;;;;;;;19.08;17.00;;;;;;;13.68;100.00;99755.41;2055729;28;20036;-70
2022/05/24 00:20:55;;;;;;;20.77;17.35;;;;;;;13.67;99.95;99768.94;2056190;28;20039;-70
2022/05/24 00:21:55;;;;;;;19.05;16.92;;;;;;;13.66;100.00;99761.84;2056166;28;20035;-70
2022/05/24 00:22:56;;;;;;;19.17;17.05;;;;;;;13.65;99.63;99760.94;2055350;28;20051;-70
2022/05/24 00:23:59;;;;;;;20.80;17.45;;;;;;;13.65;100.00;99760.94;2055323;28;20048;-70
2022/05/24 00:25:01;;;;;;;21.02;18.30;;;;;;;13.62;99.39;99769.19;2063796;28;20078;-69
2022/05/24 00:26:07;;;;;;;19.23;17.27;;;;;;;13.62;99.79;99771.00;2062344;28;20051;-69
2022/05/24 00:27:08;;;;;;;22.70;19.23;;;;;;;13.59;100.00;99766.66;2056326;28;20051;-69
2022/05/24 00:28:10;;;;;;;24.50;19.33;;;;;;;13.59;99.77;99771.19;2063564;28;20169;-70
2022/05/24 00:29:11;;;;;;;21.13;18.77;;;;;;;13.61;100.00;99777.34;2071466;28;20073;-69
2022/05/24 00:30:16;;;;;;;21.25;18.95;;;;;;;13.59;100.00;99776.56;2063527;28;20102;-69
2022/05/24 00:31:17;;;;;;;21.70;19.30;;;;;;;13.59;100.00;99781.94;2048016;28;20119;-69
2022/05/24 00:32:17;;;;;;;20.27;18.10;;;;;;;13.57;100.00;99784.72;2047405;28;20099;-70
2022/05/24 00:33:21;;;;;;;19.67;17.58;;;;;;;13.56;100.00;99783.81;2055841;28;20035;-69
2022/05/24 00:34:24;;;;;;;19.70;17.42;;;;;;;13.55;100.00;99786.63;2055580;28;20051;-70
2022/05/24 00:35:25;;;;;;;21.73;18.00;;;;;;;13.55;99.63;99781.25;2055633;28;20040;-70
2022/05/24 00:36:27;;;;;;;22.33;18.83;;;;;;;13.55;100.00;99786.63;2055473;28;20138;-69
2022/05/24 00:37:32;;;;;;;19.20;17.08;;;;;;;13.52;99.71;99793.00;2055766;28;20043;-70
2022/05/24 00:38:37;;;;;;;18.40;16.25;;;;;;;13.55;99.94;99792.00;2055347;28;20887;-70
2022/05/24 00:39:37;;;;;;;20.02;17.92;;;;;;;13.55;99.70;99786.63;2048812;28;20154;-70
2022/05/24 00:40:45;;;;;;;19.08;17.08;;;;;;;13.55;99.85;99783.94;2055712;28;20066;-69
2022/05/24 00:41:59;;;;;;;19.08;16.65;;;;;;;13.54;99.84;99787.56;2056372;28;20047;-70
2022/05/24 00:43:12;;;;;;;19.20;17.10;;;;;;;13.54;100.00;99790.25;2050236;28;20160;-70
2022/05/24 00:44:39;;;;;;;22.02;17.17;;;;;;;13.54;100.00;99791.09;2043563;28;20980;-70
2022/05/24 00:45:48;;;;;;;20.40;17.33;;;;;;;13.55;99.89;99789.31;2047819;28;20974;-70
2022/05/24 00:47:05;;;;;;;21.67;17.92;;;;;;;13.54;99.86;99795.63;2049819;28;44910;-69
2022/05/24 00:48:22;;;;;;;19.65;17.55;;;;;;;13.54;99.79;99798.31;2057454;28;44991;-69
2022/05/24 00:49:30;;;;;;;20.40;17.08;;;;;;;13.54;100.00;99795.63;2058179;28;44591;-69
2022/05/24 00:50:38;;;;;;;20.00;17.42;;;;;;;13.53;100.00;99799.25;2057124;28;46206;-70
2022/05/24 00:51:48;;;;;;;19.13;17.13;;;;;;;13.54;99.86;99806.38;2062853;28;42802;-70
2022/05/24 00:53:04;;;;;;;16.77;15.02;;;;;;;13.54;99.32;99801.88;2062514;28;44535;-70
2022/05/24 00:54:06;;;;;;;17.23;15.02;;;;;;;13.54;99.18;99803.69;2062520;28;45229;-70
2022/05/24 00:55:12;;;;;;;19.55;15.70;;;;;;;13.54;99.70;99811.75;2048532;28;45200;-70
2022/05/24 00:56:24;;;;;;;17.98;15.35;;;;;;;13.54;99.10;99803.69;2048100;28;44794;-70
2022/05/24 00:57:34;;;;;;;18.45;15.27;;;;;;;13.53;99.18;99807.31;2057177;28;20960;-70
2022/05/24 00:58:54;;;;;;;18.97;16.53;;;;;;;13.52;99.45;99809.16;2056404;28;41238;-69
2022/05/24 01:00:16;;;;;;;20.30;15.82;;;;;;;13.53;99.49;99810.00;2057470;28;46157;-69
2022/05/24 01:01:33;;;;;;;17.67;15.13;;;;;;;13.53;100.00;99807.31;2058059;28;45893;-69
2022/05/24 01:02:36;;;;;;;17.73;15.45;;;;;;;13.51;99.33;99803.84;2049772;28;30947;-69
2022/05/24 01:03:40;;;;;;;16.92;15.00;;;;;;;13.51;99.25;99806.53;2049126;28;41886;-68
2022/05/24 01:04:42;;;;;;;15.00;13.38;;;;;;;13.50;98.58;99807.50;2054454;28;44580;-69
2022/05/24 01:05:44;;;;;;;14.48;11.85;;;;;;;13.50;98.20;99815.56;2054714;28;44056;-69
2022/05/24 01:06:51;;;;;;;14.63;12.05;;;;;;;13.50;98.02;99810.19;2062589;28;42652;-69
2022/05/24 01:07:53;;;;;;;12.60;11.27;;;;;;;13.49;98.01;99811.13;2069621;28;43996;-69
2022/05/24 01:08:58;;;;;;;12.10;10.70;;;;;;;13.48;97.90;99812.09;2062911;28;44421;-69
2022/05/24 01:10:18;;;;;;;14.88;11.02;;;;;;;13.47;97.85;99815.72;2063073;28;20053;-70
2022/05/24 01:11:23;;;;;;;14.52;10.95;;;;;;;13.45;97.97;99810.44;2063558;28;20070;-69
2022/05/24 01:12:30;;;;;;;13.48;10.23;;;;;;;13.46;97.38;99816.66;2062319;28;45770;-70
2022/05/24 01:13:32;;;;;;;10.77;9.57;;;;;;;13.42;97.10;99805.22;2061759;28;46326;-69
2022/05/24 01:14:34;;;;;;;13.77;10.10;;;;;;;13.41;97.88;99811.56;2055300;28;44733;-70
2022/05/24 01:15:36;;;;;;;14.85;10.25;;;;;;;13.41;97.15;99824.13;2062092;28;45446;-70
2022/05/24 01:16:38;;;;;;;15.98;10.13;;;;;;;13.39;97.41;99817.94;2062239;28;46660;-69
2022/05/24 01:17:41;;;;;;;12.52;9.90;;;;;;;13.36;98.24;99817.16;2054266;28;42959;-69
2022/05/24 01:18:43;;;;;;;13.15;10.27;;;;;;;13.36;98.17;99822.53;2062407;28;43702;-70
2022/05/24 01:19:49;;;;;;;13.40;10.95;;;;;;;13.35;98.00;99820.81;2063085;28;42084;-70
2022/05/24 01:21:04;;;;;;;13.60;10.98;;;;;;;13.35;98.36;99817.22;2063956;28;20031;-69
2022/05/24 01:22:34;;;;;;;11.43;10.27;;;;;;;13.33;98.07;99824.50;2062207;28;45460;-69
2022/05/24 01:24:00;;;;;;;12.88;10.82;;;;;;;13.32;98.70;99823.66;2062694;28;43662;-70
2022/05/24 01:25:30;;;;;;;13.07;11.05;;;;;;;13.31;98.50;99829.97;2061977;28;44916;-69
2022/05/24 01:26:51;;;;;;;11.57;10.35;;;;;;;13.31;98.48;99824.59;2057807;28;44431;-69
2022/05/24 01:27:55;;;;;;;14.95;11.00;;;;;;;13.33;98.48;99833.47;2059027;28;20043;-70
2022/05/24 01:29:04;;;;;;;14.05;11.25;;;;;;;13.33;98.13;99829.88;2049632;28;20044;-69
2022/05/24 01:30:08;;;;;;;14.98;11.10;;;;;;;13.34;98.58;99824.44;2047310;28;43438;-69
2022/05/24 01:31:10;;;;;;;12.73;9.93;;;;;;;13.33;98.08;99825.41;2053507;28;45860;-70
2022/05/24 01:36:13;;;;;;;9.65;8.65;;;;;;;13.34;98.49;99831.66;2058969;28;42617;-69
2022/05/24 01:37:17;;;;;;;10.65;8.63;;;;;;;13.34;97.76;99832.50;2053792;28;44014;-68
2022/05/24 01:38:22;;;;;;;11.05;8.25;;;;;;;13.34;97.75;99829.81;2054679;28;44431;-70
2022/05/24 01:39:23;;;;;;;9.85;7.35;;;;;;;13.33;97.82;99836.16;2061039;28;43514;-69
2022/05/24 01:40:28;;;;;;;9.30;7.32;;;;;;;13.32;97.65;99838.94;2054663;28;45431;-69
2022/05/24 01:41:41;;;;;;;9.75;6.93;;;;;;;13.33;97.34;99841.53;2054065;28;44923;-67
2022/05/24 01:42:42;;;;;;;9.68;7.32;;;;;;;13.33;98.22;99846.91;2055499;28;45825;-69
2022/05/24 01:43:49;;;;;;;10.02;7.05;;;;;;;13.32;97.84;99850.53;2060688;28;46071;-70
2022/05/24 01:45:18;;;;;;;8.25;6.55;;;;;;;13.32;97.41;99847.84;2054262;28;45522;-70
2022/05/24 01:46:34;;;;;;;8.73;6.68;;;;;;;13.32;97.33;99849.69;2060091;28;20176;-70
2022/05/24 01:47:36;;;;;;;8.57;6.50;;;;;;;13.30;97.25;99838.97;2046211;28;46412;-70
2022/05/24 01:48:48;;;;;;;10.68;6.78;;;;;;;13.29;96.97;99841.72;2039078;28;42925;-70
2022/05/24 01:49:57;;;;;;;11.40;6.57;;;;;;;13.30;96.60;99847.03;2047631;28;47933;-69
2022/05/24 01:51:01;;;;;;;8.90;6.03;;;;;;;13.30;97.19;99847.03;2053419;28;44451;-70
2022/05/24 01:52:18;;;;;;;8.90;5.68;;;;;;;13.30;97.04;99840.78;2048322;28;20909;-70
2022/05/24 01:53:38;;;;;;;12.27;5.95;;;;;;;13.28;97.17;99848.94;2056878;28;20166;-70
2022/05/24 01:55:15;;;;;;;9.48;5.63;;;;;;;13.27;97.19;99846.31;2054903;28;20110;-69
2022/05/24 01:56:23;;;;;;;9.88;5.80;;;;;;;13.25;96.82;99843.72;2060608;28;44519;-69
2022/05/24 01:57:41;;;;;;;8.02;5.30;;;;;;;13.26;96.66;99834.72;2054215;28;42092;-70
2022/05/24 01:58:50;;;;;;;8.38;5.10;;;;;;;13.24;96.44;99841.94;2045690;28;44609;-69
2022/05/24 01:59:56;;;;;;;8.60;5.78;;;;;;;13.23;96.31;99834.00;2047432;28;20994;-70
2022/05/24 02:01:11;;;;;;;9.23;5.75;;;;;;;13.22;96.48;99849.22;2047313;28;45763;-69
2022/05/24 02:02:15;;;;;;;8.48;5.15;;;;;;;13.22;96.81;99843.84;2038872;29;20079;-70
2022/05/24 02:03:17;;;;;;;7.38;4.78;;;;;;;13.21;96.70;99847.50;2031308;29;45349;-70
2022/05/24 02:04:31;;;;;;;7.68;4.55;;;;;;;13.18;96.22;99851.22;2040296;28;20059;-70
2022/05/24 02:05:38;;;;;;;7.03;5.10;;;;;;;13.18;96.55;99845.84;2047359;28;45842;-70
2022/05/24 02:06:40;;;;;;;7.35;4.68;;;;;;;13.17;96.98;99851.28;2046212;28;43234;-69
2022/05/24 02:07:42;;;;;;;8.23;4.75;;;;;;;13.16;96.49;99847.72;2045613;28;46770;-70
2022/05/24 02:08:43;;;;;;;6.95;4.43;;;;;;;13.13;96.36;99847.88;2046891;28;43073;-70
2022/05/24 02:09:50;;;;;;;5.65;4.72;;;;;;;13.12;96.29;99848.00;2046167;28;45643;-70
2022/05/24 02:11:01;;;;;;;6.28;4.40;;;;;;;13.10;95.67;99849.84;2046768;28;46876;-70
2022/05/24 02:12:10;;;;;;;5.90;4.07;;;;;;;13.08;95.95;99857.13;2046999;28;20040;-70
2022/05/24 02:13:23;;;;;;;5.57;3.95;;;;;;;13.04;95.96;99855.56;2039904;28;45952;-70
2022/05/24 02:14:34;;;;;;;8.65;4.60;;;;;;;13.01;96.60;99853.91;2040628;28;45721;-70
2022/05/24 02:15:42;;;;;;;7.57;4.50;;;;;;;12.99;96.29;99845.91;2046079;28;44381;-70
2022/05/24 02:16:57;;;;;;;8.05;4.57;;;;;;;12.97;96.31;99839.75;2047090;28;21280;-70
2022/05/24 02:18:10;;;;;;;7.97;4.25;;;;;;;12.95;96.22;99859.56;2048913;28;43094;-69
2022/05/24 02:19:13;;;;;;;9.35;4.80;;;;;;;12.91;96.12;99860.69;2051323;28;45397;-70
2022/05/24 02:20:22;;;;;;;6.22;4.63;;;;;;;12.87;95.81;99846.53;2045670;28;44998;-70
2022/05/24 02:21:24;;;;;;;7.10;4.47;;;;;;;12.85;95.78;99850.22;2039407;28;44293;-70
2022/05/24 02:22:28;;;;;;;7.88;4.70;;;;;;;12.80;96.08;99843.28;2038612;28;44928;-70
2022/05/24 02:23:39;;;;;;;8.27;5.10;;;;;;;12.76;95.91;99855.13;2038682;28;44843;-70
2022/05/24 02:24:41;;;;;;;9.25;4.82;;;;;;;12.73;96.31;99852.59;2046988;28;47153;-70
2022/05/24 02:25:58;;;;;;;5.28;4.18;;;;;;;12.67;96.09;99854.69;2052357;28;43426;-70
2022/05/24 02:26:59;;;;;;;7.43;4.70;;;;;;;12.64;96.65;99853.03;2045973;28;45648;-70
2022/05/24 02:28:03;;;;;;;5.88;4.38;;;;;;;12.58;96.39;99848.84;2051195;28;42456;-70
2022/05/24 02:29:08;;;;;;;9.68;4.82;;;;;;;12.57;96.60;99852.47;2062278;28;42728;-70
2022/05/24 02:30:19;;;;;;;6.90;4.18;;;;;;;12.53;96.49;99850.03;2062527;28;44580;-69
2022/05/24 02:31:22;;;;;;;7.50;4.13;;;;;;;12.50;96.89;99852.84;2062072;28;45004;-68
2022/05/24 02:32:24;;;;;;;6.03;4.43;;;;;;;12.48;96.79;99857.41;2061946;28;43942;-69
2022/05/24 02:33:26;;;;;;;7.78;4.35;;;;;;;12.44;96.67;99853.16;2062506;28;44922;-70
2022/05/24 02:34:28;;;;;;;9.80;4.72;;;;;;;12.40;97.26;99860.47;2062519;28;42074;-68
2022/05/24 02:35:29;;;;;;;7.53;3.90;;;;;;;12.35;97.39;99867.88;2062768;28;45482;-70
2022/05/24 02:36:31;;;;;;;6.32;4.40;;;;;;;12.34;97.21;99867.00;2062129;28;46896;-70
2022/05/24 02:37:36;;;;;;;7.95;4.45;;;;;;;12.32;97.42;99866.19;2062527;28;43448;-70
2022/05/24 02:38:40;;;;;;;8.82;4.63;;;;;;;12.32;98.00;99862.66;2061973;28;43654;-70
2022/05/24 02:42:24;;;;;;;7.43;4.18;;;;;;;12.23;98.02;99869.31;2061251;28;44286;-70
2022/05/24 02:43:27;;;;;;;7.20;4.20;;;;;;;12.22;97.67;99873.81;2061877;28;29709;-70
2022/05/24 02:44:31;;;;;;;4.88;4.13;;;;;;;12.20;97.75;99874.81;2062614;28;20055;-70
2022/05/24 02:45:33;;;;;;;5.65;3.90;;;;;;;12.19;98.57;99867.72;2062141;28;44060;-69
2022/05/24 02:46:39;;;;;;;7.63;4.35;;;;;;;12.18;98.60;99871.34;2062530;28;45682;-69
2022/05/24 02:47:41;;;;;;;5.93;4.30;;;;;;;12.14;98.67;99870.63;2061780;28;45572;-70
2022/05/24 02:48:45;;;;;;;6.45;4.88;;;;;;;12.17;99.21;99870.47;2063544;28;20035;-70
2022/05/24 02:49:46;;;;;;;8.45;4.75;;;;;;;12.14;98.78;99870.63;2062786;28;45705;-70
2022/05/24 02:50:48;;;;;;;7.35;4.68;;;;;;;12.11;98.78;99877.94;2063121;28;43115;-70
2022/05/24 02:51:50;;;;;;;7.35;5.38;;;;;;;12.12;99.09;99871.66;2063637;28;43045;-70
2022/05/24 02:52:51;;;;;;;7.00;4.40;;;;;;;12.05;99.32;99872.88;2063373;28;46207;-70
2022/05/24 02:53:54;;;;;;;7.50;4.90;;;;;;;12.03;98.93;99879.16;2064095;28;20035;-70
2022/05/24 02:54:57;;;;;;;6.80;4.60;;;;;;;12.00;99.19;99878.44;2063098;28;45845;-70
2022/05/24 02:56:04;;;;;;;10.05;5.38;;;;;;;12.02;99.68;99877.44;2071115;28;44334;-70
2022/05/24 02:57:05;;;;;;;8.80;5.93;;;;;;;12.02;99.80;99888.16;2071523;28;43880;-70
2022/05/24 02:58:07;;;;;;;9.90;5.40;;;;;;;12.03;99.74;99892.56;2070867;28;44546;-70
2022/05/24 02:59:09;;;;;;;8.98;5.72;;;;;;;12.04;99.94;99896.13;2062964;28;43814;-70
2022/05/24 03:00:19;;;;;;;7.53;5.22;;;;;;;12.04;99.67;99898.81;2063243;28;44418;-70
2022/05/24 03:01:28;;;;;;;9.40;5.78;;;;;;;12.04;99.91;99898.81;2062985;28;46473;-70
2022/05/24 03:02:30;;;;;;;7.97;5.68;;;;;;;12.02;99.89;99898.91;2063434;28;43463;-70
2022/05/24 03:03:31;;;;;;;12.00;5.93;;;;;;;11.99;99.90;99899.03;2063017;28;43561;-70
2022/05/24 03:04:34;;;;;;;7.82;5.82;;;;;;;12.01;100.00;99902.50;2063619;28;46278;-70
2022/05/24 03:05:36;;;;;;;9.40;5.75;;;;;;;11.99;100.00;99900.84;2063539;28;44425;-70
2022/05/24 03:09:33;;;;;;;9.75;6.47;;;;;;;11.91;100.00;99900.31;2059988;28;45444;-70
2022/05/24 03:10:37;;;;;;;8.70;6.60;;;;;;;11.88;100.00;99913.81;2063474;28;44482;-70
2022/05/24 03:14:23;;;;;;;10.30;7.43;;;;;;;11.92;100.00;99902.06;2062821;28;45121;-69
2022/05/24 03:15:24;;;;;;;11.88;7.97;;;;;;;11.88;100.00;99901.31;2054933;28;45951;-70
2022/05/24 03:16:28;;;;;;;11.52;7.55;;;;;;;11.87;100.00;99899.56;2055596;28;29301;-70
2022/05/24 03:17:32;;;;;;;9.98;8.15;;;;;;;11.86;100.00;99908.53;2070712;28;44429;-70
2022/05/24 03:18:37;;;;;;;12.38;8.38;;;;;;;11.87;100.00;99907.59;2062874;28;45776;-70
2022/05/24 03:19:39;;;;;;;11.93;8.60;;;;;;;11.88;100.00;99905.78;2056004;28;37648;-70
2022/05/24 03:20:41;;;;;;;10.43;8.25;;;;;;;11.82;100.00;99897.06;2063367;28;45932;-70
2022/05/24 03:21:43;;;;;;;13.00;8.98;;;;;;;11.85;100.00;99901.44;2062606;28;46409;-70
2022/05/24 03:22:45;;;;;;;10.93;9.02;;;;;;;11.85;100.00;99899.63;2063719;28;44596;-70
2022/05/24 03:23:46;;;;;;;11.32;9.07;;;;;;;11.87;100.00;99899.56;2063753;28;23846;-70
2022/05/24 03:24:48;;;;;;;11.10;9.00;;;;;;;11.83;100.00;99900.63;2062648;28;45014;-70
2022/05/24 03:25:51;;;;;;;11.60;10.00;;;;;;;11.88;100.00;99905.78;2064582;28;20872;-70
2022/05/24 03:26:53;;;;;;;14.00;9.85;;;;;;;11.84;100.00;99903.25;2063234;28;45444;-70
2022/05/24 03:27:55;;;;;;;11.48;9.52;;;;;;;11.83;100.00;99909.53;2063751;28;44907;-70
2022/05/24 03:28:57;;;;;;;12.23;9.25;;;;;;;11.84;100.00;99913.97;2063200;28;20846;-69
2022/05/24 03:29:59;;;;;;;13.70;10.00;;;;;;;11.85;100.00;99923.75;2055073;28;44674;-70
2022/05/24 03:31:05;;;;;;;13.68;10.38;;;;;;;11.86;100.00;99921.94;2047035;28;42855;-69
2022/05/24 03:32:13;;;;;;;18.13;9.77;;;;;;;11.88;100.00;99937.97;2057385;28;20884;-70
2022/05/24 03:33:15;;;;;;;11.95;9.85;;;;;;;11.90;100.00;99937.00;2056487;28;45245;-70
2022/05/24 03:34:17;;;;;;;19.52;9.82;;;;;;;11.89;100.00;99939.72;2062643;28;44579;-70
2022/05/24 03:35:21;;;;;;;12.20;9.35;;;;;;;11.93;100.00;99936.00;2071226;28;44653;-70
2022/05/24 03:36:23;;;;;;;12.75;9.48;;;;;;;11.91;100.00;99930.69;2063457;28;20090;-70
2022/05/24 03:37:26;;;;;;;12.10;9.93;;;;;;;11.92;100.00;99929.75;2062988;28;46316;-70
2022/05/24 03:38:28;;;;;;;13.10;10.00;;;;;;;11.94;100.00;99933.25;2063354;28;40847;-70
2022/05/24 03:39:30;;;;;;;13.10;9.98;;;;;;;11.95;100.00;99945.72;2054846;28;43891;-70
2022/05/24 03:40:33;;;;;;;14.82;10.23;;;;;;;12.00;100.00;99938.31;2046985;28;45146;-70
2022/05/24 03:41:35;;;;;;;15.40;10.77;;;;;;;12.04;100.00;99939.03;2047528;28;39386;-70
2022/05/24 03:42:38;;;;;;;12.75;10.48;;;;;;;12.05;100.00;99946.16;2062664;28;45371;-70
2022/05/24 03:43:40;;;;;;;15.00;10.27;;;;;;;12.09;100.00;99952.28;2063413;28;33212;-70
2022/05/24 03:44:44;;;;;;;12.15;10.48;;;;;;;12.11;100.00;99945.88;2062712;28;43494;-70
2022/05/24 03:45:47;;;;;;;12.18;10.13;;;;;;;12.14;100.00;99932.34;2063147;28;44836;-69
2022/05/24 03:46:55;;;;;;;12.50;10.32;;;;;;;12.19;100.00;99945.56;2064018;28;20211;-70
2022/05/24 03:47:59;;;;;;;10.70;9.40;;;;;;;12.21;100.00;99939.16;2062787;28;44672;-70
2022/05/24 03:49:01;;;;;;;14.35;10.48;;;;;;;12.22;100.00;99945.38;2055614;28;46314;-69
2022/05/24 03:50:07;;;;;;;13.07;11.10;;;;;;;12.22;100.00;99932.88;2062574;28;45735;-69
2022/05/24 03:51:09;;;;;;;14.63;10.45;;;;;;;12.25;100.00;99937.22;2063650;28;47096;-70
2022/05/24 03:52:13;;;;;;;13.15;10.45;;;;;;;12.27;100.00;99938.00;2062865;28;44662;-69
2022/05/24 03:53:18;;;;;;;12.30;11.00;;;;;;;12.30;100.00;99937.88;2063679;28;20035;-69
2022/05/24 03:54:19;;;;;;;14.13;11.00;;;;;;;12.32;100.00;99933.28;2063693;28;46287;-70
2022/05/24 03:55:22;;;;;;;14.60;11.25;;;;;;;12.36;99.81;99925.97;2063259;28;45518;-69
2022/05/24 03:56:29;;;;;;;13.90;10.50;;;;;;;12.38;99.83;99926.75;2064593;28;20073;-69
2022/05/24 03:58:52;;;;;;;14.52;10.40;;;;;;;12.40;99.90;99928.47;2062702;28;44570;-69
2022/05/24 03:59:54;;;;;;;15.32;10.77;;;;;;;12.43;99.78;99924.75;2062260;28;43674;-69
2022/05/24 04:00:56;;;;;;;16.70;10.60;;;;;;;12.46;99.87;99931.81;2063018;28;43012;-70
2022/05/24 04:01:59;;;;;;;16.55;11.50;;;;;;;12.46;100.00;99932.66;2063660;28;24953;-69
2022/05/24 04:03:02;;;;;;;11.60;10.40;;;;;;;12.46;99.32;99926.44;2063443;28;44996;-70
2022/05/24 04:04:06;;;;;;;13.85;10.98;;;;;;;12.48;99.69;99927.22;2063173;28;43635;-69
2022/05/24 04:05:09;;;;;;;15.07;10.77;;;;;;;12.48;99.60;99933.44;2070462;28;44795;-71
2022/05/24 04:06:10;;;;;;;12.40;11.10;;;;;;;12.49;98.93;99935.22;2063218;28;45294;-68
2022/05/24 04:07:15;;;;;;;12.48;10.88;;;;;;;12.53;99.51;99938.63;2062715;28;44602;-69
2022/05/24 04:08:19;;;;;;;12.95;11.02;;;;;;;12.52;99.30;99932.34;2062454;28;46041;-70
2022/05/24 04:09:21;;;;;;;15.30;11.40;;;;;;;12.55;99.58;99934.91;2062534;28;42980;-69
2022/05/24 04:10:23;;;;;;;15.18;11.77;;;;;;;12.56;98.70;99942.03;2062344;28;44005;-71
2022/05/24 04:11:24;;;;;;;16.23;11.60;;;;;;;12.59;98.99;99933.81;2063575;28;42658;-69
2022/05/24 04:12:26;;;;;;;14.95;11.60;;;;;;;12.60;98.14;99934.69;2063277;28;43029;-71
2022/05/24 04:13:29;;;;;;;14.65;12.27;;;;;;;12.62;98.48;99932.81;2063171;28;46209;-69
2022/05/24 04:14:32;;;;;;;15.68;12.60;;;;;;;12.63;98.59;99929.16;2061735;28;43413;-68
2022/05/24 04:15:34;;;;;;;13.65;12.13;;;;;;;12.66;98.22;99937.09;2062474;28;45417;-70
2022/05/24 04:16:36;;;;;;;14.70;11.48;;;;;;;12.66;98.72;99931.72;2062644;28;44655;-69
2022/05/24 04:17:38;;;;;;;14.30;12.23;;;;;;;12.69;98.07;99930.72;2063048;28;45602;-71
2022/05/24 04:18:39;;;;;;;15.05;12.70;;;;;;;12.70;98.18;99937.81;2063458;28;44310;-69
2022/05/24 04:19:44;;;;;;;14.32;12.60;;;;;;;12.71;97.89;99937.75;2063274;28;45882;-69
2022/05/24 04:20:45;;;;;;;15.52;12.27;;;;;;;12.74;98.03;99942.06;2063111;28;43899;-69
2022/05/24 04:21:49;;;;;;;16.83;12.73;;;;;;;12.75;97.78;99938.47;2062513;28;43250;-69
2022/05/24 04:22:55;;;;;;;16.02;13.02;;;;;;;12.78;98.09;99946.38;2063264;28;20094;-70
2022/05/24 04:23:57;;;;;;;15.20;12.35;;;;;;;12.79;97.72;99945.41;2063152;28;46238;-70
2022/05/24 04:24:59;;;;;;;16.27;12.35;;;;;;;12.83;98.01;99947.03;2062607;28;45572;-70
2022/05/24 04:26:04;;;;;;;16.85;12.13;;;;;;;12.86;97.42;99951.38;2062674;28;46359;-69
2022/05/24 04:27:07;;;;;;;15.90;13.88;;;;;;;12.87;97.18;99945.94;2062332;28;44613;-70
2022/05/24 04:28:11;;;;;;;15.80;12.98;;;;;;;12.91;97.16;99947.50;2062662;28;45780;-69
2022/05/24 04:29:12;;;;;;;14.30;12.10;;;;;;;12.94;97.11;99943.81;2062628;28;46145;-69
2022/05/24 04:30:15;;;;;;;16.73;13.63;;;;;;;12.98;96.54;99953.47;2063405;28;44849;-69
2022/05/24 04:31:16;;;;;;;17.17;13.60;;;;;;;13.03;97.13;99947.84;2063258;28;20043;-69
2022/05/24 04:32:18;;;;;;;17.75;13.52;;;;;;;13.05;96.17;99943.31;2063009;28;43948;-69
2022/05/24 04:33:20;;;;;;;15.73;13.25;;;;;;;13.03;96.29;99938.00;2054722;28;44424;-70
2022/05/24 04:34:24;;;;;;;17.67;14.63;;;;;;;13.07;95.87;99952.16;2055550;28;20031;-70
2022/05/24 04:35:28;;;;;;;17.88;13.88;;;;;;;13.09;95.92;99942.19;2062593;28;42736;-69
2022/05/24 04:36:31;;;;;;;14.95;13.05;;;;;;;13.12;96.30;99945.59;2063384;28;43623;-69
2022/05/24 04:37:32;;;;;;;17.73;12.93;;;;;;;13.18;95.38;99950.66;2063015;28;44417;-69
2022/05/24 04:38:34;;;;;;;17.55;13.40;;;;;;;13.20;95.01;99952.41;2063272;28;43765;-70
2022/05/24 04:39:36;;;;;;;18.63;13.40;;;;;;;13.23;95.56;99953.13;2062995;28;44537;-69
2022/05/24 04:43:18;;;;;;;17.75;12.43;;;;;;;13.38;94.79;99950.66;2062810;28;46287;-70
2022/05/24 04:44:22;;;;;;;15.32;13.13;;;;;;;13.40;94.52;99952.31;2063043;28;45720;-71
2022/05/24 04:45:25;;;;;;;19.95;14.07;;;;;;;13.40;94.20;99951.44;2062527;28;46832;-71
2022/05/24 04:47:06;;;;;;;16.70;12.93;;;;;;;13.45;94.62;99952.94;2062901;28;45006;-70
2022/05/24 04:47:52;;;;;;;18.02;13.73;;;;;;;13.51;93.85;99951.75;2064085;28;20111;-71
2022/05/24 04:48:53;;;;;;;14.85;13.32;;;;;;;13.56;94.28;99955.09;2062907;28;46307;-71
2022/05/24 04:49:59;;;;;;;15.48;13.23;;;;;;;13.61;93.52;99953.03;2062921;28;43878;-70
2022/05/24 04:51:01;;;;;;;16.25;13.43;;;;;;;13.65;93.72;99941.16;2062563;28;46361;-70
2022/05/24 04:52:03;;;;;;;18.48;15.10;;;;;;;13.70;93.83;99930.16;2055038;28;43191;-69
2022/05/24 04:53:07;;;;;;;16.52;13.75;;;;;;;13.78;93.01;99937.84;2062645;28;45633;-71
2022/05/24 04:54:09;;;;;;;19.48;14.75;;;;;;;13.78;93.46;99944.06;2062611;28;45458;-70
2022/05/24 04:55:14;;;;;;;15.80;14.10;;;;;;;13.82;92.98;99939.41;2062723;28;42215;-71
2022/05/24 04:56:15;;;;;;;16.55;14.38;;;;;;;13.83;93.23;99952.78;2062229;28;44063;-71
2022/05/24 04:57:18;;;;;;;20.02;15.35;;;;;;;13.82;93.00;99952.84;2062959;28;46203;-70
2022/05/24 04:58:20;;;;;;;17.70;15.65;;;;;;;13.82;93.09;99952.84;2062417;28;45760;-70
2022/05/24 04:59:22;;;;;;;16.58;14.82;;;;;;;13.82;93.42;99947.47;2062082;28;44028;-68
2022/05/24 05:00:24;;;;;;;20.02;14.82;;;;;;;13.81;92.91;99948.44;2062566;28;44995;-69
2022/05/24 05:01:28;;;;;;;15.98;14.18;;;;;;;13.81;92.98;99946.63;2063632;28;20042;-69
2022/05/24 05:02:30;;;;;;;18.10;15.65;;;;;;;13.78;93.75;99946.75;2062552;28;45522;-67
2022/05/24 05:03:33;;;;;;;20.67;16.02;;;;;;;13.71;93.39;99943.56;2062534;28;44421;-69
2022/05/24 05:04:36;;;;;;;17.80;15.25;;;;;;;13.67;93.33;99950.00;2062933;28;44886;-69
2022/05/24 05:05:38;;;;;;;20.75;17.05;;;;;;;13.66;93.55;99944.75;2062315;28;42856;-69
2022/05/24 05:06:44;;;;;;;20.30;15.70;;;;;;;13.61;93.86;99946.78;2062250;28;43596;-69
2022/05/24 05:07:46;;;;;;;19.55;15.27;;;;;;;13.64;93.64;99957.38;2063188;28;43502;-70
2022/05/24 05:08:48;;;;;;;20.17;16.77;;;;;;;13.59;94.27;99954.94;2062759;28;45768;-69
2022/05/24 05:09:51;;;;;;;20.13;16.55;;;;;;;13.63;94.04;99951.13;2063218;28;44889;-69
2022/05/24 05:10:53;;;;;;;18.02;15.77;;;;;;;13.65;93.71;99945.69;2062190;28;44346;-69
2022/05/24 05:11:57;;;;;;;20.60;17.13;;;;;;;13.62;93.85;99951.22;2061831;28;42824;-71
2022/05/24 05:12:59;;;;;;;20.33;18.02;;;;;;;13.58;94.03;99942.44;2062387;28;46569;-69
2022/05/24 05:14:03;;;;;;;20.98;18.80;;;;;;;13.58;94.34;99946.94;2063173;28;44489;-69
2022/05/24 05:15:06;;;;;;;21.77;18.48;;;;;;;13.62;94.49;99952.09;2062948;28;45896;-72
2022/05/24 05:16:07;;;;;;;21.50;19.05;;;;;;;13.66;93.75;99953.66;2062772;28;44055;-69
2022/05/24 05:17:11;;;;;;;19.85;17.80;;;;;;;13.70;93.70;99949.00;2062813;28;20031;-70